sensor_id;sensor_type;location;lat;lon;timestamp;P1;durP1;ratioP1;P2;durP2;ratioP2
2338;SDS011;1180;51.438;6.978;2023-05-03T00:00:07;7.83;;;3.03;;
2338;SDS011;1180;51.438;6.978;2023-05-03T00:02:34;4.70;;;3.90;;
2338;SDS011;1180;51.438;6.978;2023-05-03T00:05:04;5.47;;;3.27;;
2338;SDS011;1180;51.438;6.978;2023-05-03T00:07:33;9.13;;;3.13;;
2338;SDS011;1180;51.438;6.978;2023-05-03T00:09:59;5.97;;;3.20;;
2338;SDS011;1180;51.438;6.978;2023-05-03T00:12:24;6.73;;;4.00;;
2338;SDS011;1180;51.438;6.978;2023-05-03T00:14:50;10.87;;;3.60;;
2338;SDS011;1180;51.438;6.978;2023-05-03T00:17:15;5.70;;;3.70;;
2338;SDS011;1180;51.438;6.978;2023-05-03T00:19:41;3.90;;;3.03;;
2338;SDS011;1180;51.438;6.978;2023-05-03T00:22:06;5.00;;;3.80;;
2338;SDS011;1180;51.438;6.978;2023-05-03T00:24:33;3.87;;;3.57;;
2338;SDS011;1180;51.438;6.978;2023-05-03T00:26:58;3.60;;;3.10;;
2338;SDS011;1180;51.438;6.978;2023-05-03T00:29:24;4.50;;;3.90;;
2338;SDS011;1180;51.438;6.978;2023-05-03T00:31:50;6.03;;;3.77;;
2338;SDS011;1180;51.438;6.978;2023-05-03T00:34:16;4.00;;;3.60;;
2338;SDS011;1180;51.438;6.978;2023-05-03T00:36:41;5.30;;;3.53;;
2338;SDS011;1180;51.438;6.978;2023-05-03T00:39:07;4.60;;;3.03;;
2338;SDS011;1180;51.438;6.978;2023-05-03T00:41:33;5.23;;;3.43;;
2338;SDS011;1180;51.438;6.978;2023-05-03T00:43:58;7.20;;;4.00;;
2338;SDS011;1180;51.438;6.978;2023-05-03T00:46:24;7.03;;;3.93;;
2338;SDS011;1180;51.438;6.978;2023-05-03T00:48:49;3.77;;;3.47;;
2338;SDS011;1180;51.438;6.978;2023-05-03T00:51:15;5.73;;;4.33;;
2338;SDS011;1180;51.438;6.978;2023-05-03T00:53:43;7.70;;;3.73;;
2338;SDS011;1180;51.438;6.978;2023-05-03T00:56:09;6.97;;;4.40;;
2338;SDS011;1180;51.438;6.978;2023-05-03T00:58:36;6.63;;;4.03;;
2338;SDS011;1180;51.438;6.978;2023-05-03T01:01:04;4.83;;;4.33;;
2338;SDS011;1180;51.438;6.978;2023-05-03T01:03:35;6.27;;;4.20;;
2338;SDS011;1180;51.438;6.978;2023-05-03T01:06:12;5.50;;;3.80;;
2338;SDS011;1180;51.438;6.978;2023-05-03T01:08:43;4.30;;;3.37;;
2338;SDS011;1180;51.438;6.978;2023-05-03T01:14:09;6.10;;;4.20;;
2338;SDS011;1180;51.438;6.978;2023-05-03T01:16:46;6.03;;;4.20;;
2338;SDS011;1180;51.438;6.978;2023-05-03T01:19:24;5.17;;;3.63;;
2338;SDS011;1180;51.438;6.978;2023-05-03T01:24:36;10.83;;;4.50;;
2338;SDS011;1180;51.438;6.978;2023-05-03T01:27:05;6.83;;;3.47;;
2338;SDS011;1180;51.438;6.978;2023-05-03T01:29:33;6.17;;;3.77;;
2338;SDS011;1180;51.438;6.978;2023-05-03T01:31:59;5.70;;;4.40;;
2338;SDS011;1180;51.438;6.978;2023-05-03T01:34:33;4.97;;;4.50;;
2338;SDS011;1180;51.438;6.978;2023-05-03T01:37:07;6.90;;;4.27;;
2338;SDS011;1180;51.438;6.978;2023-05-03T01:39:37;9.80;;;4.03;;
2338;SDS011;1180;51.438;6.978;2023-05-03T01:42:24;7.50;;;5.10;;
2338;SDS011;1180;51.438;6.978;2023-05-03T01:44:51;8.60;;;4.47;;
2338;SDS011;1180;51.438;6.978;2023-05-03T01:47:19;5.93;;;4.10;;
2338;SDS011;1180;51.438;6.978;2023-05-03T01:49:45;5.77;;;4.20;;
2338;SDS011;1180;51.438;6.978;2023-05-03T01:52:10;9.83;;;4.70;;
2338;SDS011;1180;51.438;6.978;2023-05-03T01:54:36;14.40;;;4.50;;
2338;SDS011;1180;51.438;6.978;2023-05-03T01:57:01;4.50;;;3.97;;
2338;SDS011;1180;51.438;6.978;2023-05-03T01:59:27;6.50;;;4.47;;
2338;SDS011;1180;51.438;6.978;2023-05-03T02:01:52;5.97;;;3.90;;
2338;SDS011;1180;51.438;6.978;2023-05-03T02:04:18;5.40;;;4.17;;
2338;SDS011;1180;51.438;6.978;2023-05-03T02:06:44;4.77;;;4.17;;
2338;SDS011;1180;51.438;6.978;2023-05-03T02:09:09;6.30;;;4.13;;
2338;SDS011;1180;51.438;6.978;2023-05-03T02:11:35;6.40;;;4.20;;
2338;SDS011;1180;51.438;6.978;2023-05-03T02:14:00;8.47;;;4.47;;
2338;SDS011;1180;51.438;6.978;2023-05-03T02:16:25;6.30;;;4.10;;
2338;SDS011;1180;51.438;6.978;2023-05-03T02:18:51;5.97;;;4.53;;
2338;SDS011;1180;51.438;6.978;2023-05-03T02:21:18;8.13;;;3.93;;
2338;SDS011;1180;51.438;6.978;2023-05-03T02:23:43;4.03;;;3.70;;
2338;SDS011;1180;51.438;6.978;2023-05-03T02:26:08;8.77;;;4.50;;
2338;SDS011;1180;51.438;6.978;2023-05-03T02:28:34;11.63;;;3.90;;
2338;SDS011;1180;51.438;6.978;2023-05-03T02:30:59;4.63;;;3.77;;
2338;SDS011;1180;51.438;6.978;2023-05-03T02:33:25;13.40;;;4.60;;
2338;SDS011;1180;51.438;6.978;2023-05-03T02:35:50;4.90;;;3.90;;
2338;SDS011;1180;51.438;6.978;2023-05-03T02:38:15;3.80;;;3.30;;
2338;SDS011;1180;51.438;6.978;2023-05-03T02:40:41;5.60;;;3.50;;
2338;SDS011;1180;51.438;6.978;2023-05-03T02:43:07;5.20;;;3.83;;
2338;SDS011;1180;51.438;6.978;2023-05-03T02:45:34;7.03;;;4.07;;
2338;SDS011;1180;51.438;6.978;2023-05-03T02:48:00;6.30;;;4.27;;
2338;SDS011;1180;51.438;6.978;2023-05-03T02:50:25;6.33;;;4.13;;
2338;SDS011;1180;51.438;6.978;2023-05-03T02:52:51;4.67;;;3.67;;
2338;SDS011;1180;51.438;6.978;2023-05-03T02:55:16;10.83;;;4.47;;
2338;SDS011;1180;51.438;6.978;2023-05-03T02:57:42;4.67;;;3.63;;
2338;SDS011;1180;51.438;6.978;2023-05-03T03:00:07;3.73;;;3.30;;
2338;SDS011;1180;51.438;6.978;2023-05-03T03:02:35;6.40;;;3.73;;
2338;SDS011;1180;51.438;6.978;2023-05-03T03:05:00;4.50;;;4.10;;
2338;SDS011;1180;51.438;6.978;2023-05-03T03:07:25;4.77;;;4.20;;
2338;SDS011;1180;51.438;6.978;2023-05-03T03:09:51;6.13;;;3.60;;
2338;SDS011;1180;51.438;6.978;2023-05-03T03:12:16;3.87;;;3.47;;
2338;SDS011;1180;51.438;6.978;2023-05-03T03:14:41;7.30;;;3.80;;
2338;SDS011;1180;51.438;6.978;2023-05-03T03:17:09;8.23;;;3.60;;
2338;SDS011;1180;51.438;6.978;2023-05-03T03:19:36;4.40;;;4.00;;
2338;SDS011;1180;51.438;6.978;2023-05-03T03:22:01;8.40;;;3.33;;
2338;SDS011;1180;51.438;6.978;2023-05-03T03:24:27;7.20;;;4.17;;
2338;SDS011;1180;51.438;6.978;2023-05-03T03:26:52;4.90;;;4.10;;
2338;SDS011;1180;51.438;6.978;2023-05-03T03:29:17;4.40;;;4.00;;
2338;SDS011;1180;51.438;6.978;2023-05-03T03:31:43;4.23;;;3.83;;
2338;SDS011;1180;51.438;6.978;2023-05-03T03:34:09;5.47;;;4.30;;
2338;SDS011;1180;51.438;6.978;2023-05-03T03:36:36;6.80;;;4.20;;
2338;SDS011;1180;51.438;6.978;2023-05-03T03:39:03;7.07;;;4.80;;
2338;SDS011;1180;51.438;6.978;2023-05-03T03:41:29;6.60;;;4.23;;
2338;SDS011;1180;51.438;6.978;2023-05-03T03:43:54;6.63;;;4.57;;
2338;SDS011;1180;51.438;6.978;2023-05-03T03:46:20;7.27;;;5.17;;
2338;SDS011;1180;51.438;6.978;2023-05-03T03:48:45;5.97;;;4.23;;
2338;SDS011;1180;51.438;6.978;2023-05-03T03:51:10;7.17;;;4.80;;
2338;SDS011;1180;51.438;6.978;2023-05-03T03:53:36;7.80;;;4.87;;
2338;SDS011;1180;51.438;6.978;2023-05-03T03:56:01;4.70;;;4.30;;
2338;SDS011;1180;51.438;6.978;2023-05-03T03:58:26;8.97;;;5.80;;
2338;SDS011;1180;51.438;6.978;2023-05-03T04:00:52;7.33;;;4.93;;
2338;SDS011;1180;51.438;6.978;2023-05-03T04:03:17;7.17;;;5.33;;
2338;SDS011;1180;51.438;6.978;2023-05-03T04:05:43;9.53;;;4.70;;
2338;SDS011;1180;51.438;6.978;2023-05-03T04:08:08;5.73;;;4.37;;
2338;SDS011;1180;51.438;6.978;2023-05-03T04:10:33;8.17;;;4.57;;
2338;SDS011;1180;51.438;6.978;2023-05-03T04:12:59;4.60;;;4.10;;
2338;SDS011;1180;51.438;6.978;2023-05-03T04:15:25;9.37;;;5.10;;
2338;SDS011;1180;51.438;6.978;2023-05-03T04:17:51;6.37;;;4.87;;
2338;SDS011;1180;51.438;6.978;2023-05-03T04:20:16;6.33;;;5.20;;
2338;SDS011;1180;51.438;6.978;2023-05-03T04:22:43;7.00;;;4.97;;
2338;SDS011;1180;51.438;6.978;2023-05-03T04:25:12;8.93;;;4.70;;
2338;SDS011;1180;51.438;6.978;2023-05-03T04:27:43;5.07;;;4.57;;
2338;SDS011;1180;51.438;6.978;2023-05-03T04:30:10;7.97;;;4.60;;
2338;SDS011;1180;51.438;6.978;2023-05-03T04:32:36;6.50;;;4.70;;
2338;SDS011;1180;51.438;6.978;2023-05-03T04:35:04;9.40;;;5.20;;
2338;SDS011;1180;51.438;6.978;2023-05-03T04:37:33;8.83;;;4.70;;
2338;SDS011;1180;51.438;6.978;2023-05-03T04:39:59;6.83;;;4.17;;
2338;SDS011;1180;51.438;6.978;2023-05-03T04:42:24;9.00;;;4.93;;
2338;SDS011;1180;51.438;6.978;2023-05-03T04:44:50;6.03;;;4.67;;
2338;SDS011;1180;51.438;6.978;2023-05-03T04:47:16;5.50;;;4.83;;
2338;SDS011;1180;51.438;6.978;2023-05-03T04:49:42;9.60;;;4.57;;
2338;SDS011;1180;51.438;6.978;2023-05-03T04:52:08;11.40;;;4.60;;
2338;SDS011;1180;51.438;6.978;2023-05-03T04:54:34;20.13;;;5.50;;
2338;SDS011;1180;51.438;6.978;2023-05-03T04:57:00;17.70;;;5.50;;
2338;SDS011;1180;51.438;6.978;2023-05-03T04:59:25;7.33;;;4.80;;
2338;SDS011;1180;51.438;6.978;2023-05-03T05:01:51;7.13;;;4.60;;
2338;SDS011;1180;51.438;6.978;2023-05-03T05:04:16;5.77;;;4.50;;
2338;SDS011;1180;51.438;6.978;2023-05-03T05:06:41;8.60;;;4.27;;
2338;SDS011;1180;51.438;6.978;2023-05-03T05:09:16;7.47;;;5.80;;
2338;SDS011;1180;51.438;6.978;2023-05-03T05:11:45;5.50;;;5.00;;
2338;SDS011;1180;51.438;6.978;2023-05-03T05:14:10;8.67;;;6.00;;
2338;SDS011;1180;51.438;6.978;2023-05-03T05:16:36;7.50;;;6.00;;
2338;SDS011;1180;51.438;6.978;2023-05-03T05:19:01;9.77;;;6.00;;
2338;SDS011;1180;51.438;6.978;2023-05-03T05:21:27;8.40;;;6.37;;
2338;SDS011;1180;51.438;6.978;2023-05-03T05:23:53;9.27;;;6.57;;
2338;SDS011;1180;51.438;6.978;2023-05-03T05:26:18;6.53;;;5.90;;
2338;SDS011;1180;51.438;6.978;2023-05-03T05:28:44;6.47;;;5.87;;
2338;SDS011;1180;51.438;6.978;2023-05-03T05:31:09;7.27;;;6.00;;
2338;SDS011;1180;51.438;6.978;2023-05-03T05:33:35;14.23;;;6.77;;
2338;SDS011;1180;51.438;6.978;2023-05-03T05:36:00;9.27;;;6.27;;
2338;SDS011;1180;51.438;6.978;2023-05-03T05:38:25;6.50;;;5.43;;
2338;SDS011;1180;51.438;6.978;2023-05-03T05:40:51;8.53;;;5.60;;
2338;SDS011;1180;51.438;6.978;2023-05-03T05:43:17;9.37;;;7.00;;
2338;SDS011;1180;51.438;6.978;2023-05-03T05:45:42;7.10;;;6.40;;
2338;SDS011;1180;51.438;6.978;2023-05-03T05:48:08;7.60;;;5.40;;
2338;SDS011;1180;51.438;6.978;2023-05-03T05:50:33;9.27;;;6.20;;
2338;SDS011;1180;51.438;6.978;2023-05-03T05:52:58;7.03;;;5.83;;
2338;SDS011;1180;51.438;6.978;2023-05-03T05:55:24;7.83;;;6.73;;
2338;SDS011;1180;51.438;6.978;2023-05-03T05:57:49;8.27;;;6.50;;
2338;SDS011;1180;51.438;6.978;2023-05-03T06:00:15;8.27;;;6.73;;
2338;SDS011;1180;51.438;6.978;2023-05-03T06:02:41;8.27;;;5.47;;
2338;SDS011;1180;51.438;6.978;2023-05-03T06:05:07;6.93;;;5.97;;
2338;SDS011;1180;51.438;6.978;2023-05-03T06:07:33;8.43;;;6.80;;
2338;SDS011;1180;51.438;6.978;2023-05-03T06:09:58;12.97;;;6.83;;
2338;SDS011;1180;51.438;6.978;2023-05-03T06:12:24;11.40;;;6.87;;
2338;SDS011;1180;51.438;6.978;2023-05-03T06:14:51;11.47;;;7.03;;
2338;SDS011;1180;51.438;6.978;2023-05-03T06:17:16;10.97;;;7.23;;
2338;SDS011;1180;51.438;6.978;2023-05-03T06:19:41;9.90;;;7.00;;
2338;SDS011;1180;51.438;6.978;2023-05-03T06:22:07;8.03;;;5.73;;
2338;SDS011;1180;51.438;6.978;2023-05-03T06:24:32;9.67;;;5.97;;
2338;SDS011;1180;51.438;6.978;2023-05-03T06:26:57;10.13;;;7.10;;
2338;SDS011;1180;51.438;6.978;2023-05-03T06:29:24;8.00;;;5.90;;
2338;SDS011;1180;51.438;6.978;2023-05-03T06:31:49;7.90;;;5.57;;
2338;SDS011;1180;51.438;6.978;2023-05-03T06:34:18;7.40;;;5.33;;
2338;SDS011;1180;51.438;6.978;2023-05-03T06:36:47;6.27;;;5.60;;
2338;SDS011;1180;51.438;6.978;2023-05-03T06:39:14;7.83;;;6.07;;
2338;SDS011;1180;51.438;6.978;2023-05-03T06:41:39;6.87;;;6.17;;
2338;SDS011;1180;51.438;6.978;2023-05-03T06:44:05;7.83;;;5.97;;
2338;SDS011;1180;51.438;6.978;2023-05-03T06:46:31;13.70;;;6.50;;
2338;SDS011;1180;51.438;6.978;2023-05-03T06:48:57;6.37;;;5.70;;
2338;SDS011;1180;51.438;6.978;2023-05-03T06:51:23;10.73;;;5.47;;
2338;SDS011;1180;51.438;6.978;2023-05-03T06:53:52;6.80;;;5.87;;
2338;SDS011;1180;51.438;6.978;2023-05-03T06:56:20;6.60;;;5.23;;
2338;SDS011;1180;51.438;6.978;2023-05-03T06:58:46;5.87;;;5.30;;
2338;SDS011;1180;51.438;6.978;2023-05-03T07:01:12;11.73;;;6.50;;
2338;SDS011;1180;51.438;6.978;2023-05-03T07:03:37;12.20;;;5.83;;
2338;SDS011;1180;51.438;6.978;2023-05-03T07:06:03;12.30;;;7.30;;
2338;SDS011;1180;51.438;6.978;2023-05-03T07:08:29;6.30;;;5.00;;
2338;SDS011;1180;51.438;6.978;2023-05-03T07:10:55;5.97;;;5.30;;
2338;SDS011;1180;51.438;6.978;2023-05-03T07:13:21;8.20;;;5.20;;
2338;SDS011;1180;51.438;6.978;2023-05-03T07:15:46;10.43;;;5.10;;
2338;SDS011;1180;51.438;6.978;2023-05-03T07:18:11;7.20;;;6.10;;
2338;SDS011;1180;51.438;6.978;2023-05-03T07:20:37;9.13;;;4.97;;
2338;SDS011;1180;51.438;6.978;2023-05-03T07:23:02;7.37;;;5.70;;
2338;SDS011;1180;51.438;6.978;2023-05-03T07:25:28;6.27;;;5.30;;
2338;SDS011;1180;51.438;6.978;2023-05-03T07:27:54;8.23;;;5.20;;
2338;SDS011;1180;51.438;6.978;2023-05-03T07:30:19;13.67;;;5.60;;
2338;SDS011;1180;51.438;6.978;2023-05-03T07:32:46;9.53;;;4.70;;
2338;SDS011;1180;51.438;6.978;2023-05-03T07:35:11;8.33;;;4.30;;
2338;SDS011;1180;51.438;6.978;2023-05-03T07:37:37;7.13;;;5.10;;
2338;SDS011;1180;51.438;6.978;2023-05-03T07:40:02;6.60;;;5.10;;
2338;SDS011;1180;51.438;6.978;2023-05-03T07:42:30;7.77;;;5.20;;
2338;SDS011;1180;51.438;6.978;2023-05-03T07:44:56;8.77;;;5.40;;
2338;SDS011;1180;51.438;6.978;2023-05-03T07:47:21;9.07;;;5.07;;
2338;SDS011;1180;51.438;6.978;2023-05-03T07:49:47;5.70;;;4.43;;
2338;SDS011;1180;51.438;6.978;2023-05-03T07:52:14;8.53;;;5.27;;
2338;SDS011;1180;51.438;6.978;2023-05-03T07:54:40;5.10;;;3.97;;
2338;SDS011;1180;51.438;6.978;2023-05-03T07:57:06;5.30;;;4.30;;
2338;SDS011;1180;51.438;6.978;2023-05-03T07:59:32;4.47;;;3.90;;
2338;SDS011;1180;51.438;6.978;2023-05-03T08:01:58;7.07;;;3.87;;
2338;SDS011;1180;51.438;6.978;2023-05-03T08:04:23;6.30;;;4.37;;
2338;SDS011;1180;51.438;6.978;2023-05-03T08:06:48;5.80;;;4.10;;
2338;SDS011;1180;51.438;6.978;2023-05-03T08:09:14;4.37;;;3.87;;
2338;SDS011;1180;51.438;6.978;2023-05-03T08:11:39;6.60;;;3.00;;
2338;SDS011;1180;51.438;6.978;2023-05-03T08:14:05;7.90;;;3.47;;
2338;SDS011;1180;51.438;6.978;2023-05-03T08:16:30;10.47;;;3.90;;
2338;SDS011;1180;51.438;6.978;2023-05-03T08:18:56;5.20;;;4.70;;
2338;SDS011;1180;51.438;6.978;2023-05-03T08:21:21;4.43;;;2.80;;
2338;SDS011;1180;51.438;6.978;2023-05-03T08:23:49;4.00;;;3.60;;
2338;SDS011;1180;51.438;6.978;2023-05-03T08:26:15;3.70;;;3.07;;
2338;SDS011;1180;51.438;6.978;2023-05-03T08:28:41;7.10;;;3.80;;
2338;SDS011;1180;51.438;6.978;2023-05-03T08:31:07;9.33;;;4.30;;
2338;SDS011;1180;51.438;6.978;2023-05-03T08:33:32;5.10;;;4.50;;
2338;SDS011;1180;51.438;6.978;2023-05-03T08:35:58;5.00;;;4.03;;
2338;SDS011;1180;51.438;6.978;2023-05-03T08:38:24;4.63;;;4.00;;
2338;SDS011;1180;51.438;6.978;2023-05-03T08:40:50;4.23;;;3.27;;
2338;SDS011;1180;51.438;6.978;2023-05-03T08:43:19;7.47;;;4.60;;
2338;SDS011;1180;51.438;6.978;2023-05-03T08:45:45;5.33;;;3.53;;
2338;SDS011;1180;51.438;6.978;2023-05-03T08:48:11;4.73;;;3.60;;
2338;SDS011;1180;51.438;6.978;2023-05-03T08:50:38;4.97;;;3.10;;
2338;SDS011;1180;51.438;6.978;2023-05-03T08:53:08;7.50;;;3.47;;
2338;SDS011;1180;51.438;6.978;2023-05-03T08:55:34;6.80;;;3.83;;
2338;SDS011;1180;51.438;6.978;2023-05-03T08:58:01;4.93;;;4.00;;
2338;SDS011;1180;51.438;6.978;2023-05-03T09:00:34;8.40;;;4.27;;
2338;SDS011;1180;51.438;6.978;2023-05-03T09:03:00;6.03;;;4.27;;
2338;SDS011;1180;51.438;6.978;2023-05-03T09:05:30;7.70;;;4.37;;
2338;SDS011;1180;51.438;6.978;2023-05-03T09:08:30;6.40;;;4.60;;
2338;SDS011;1180;51.438;6.978;2023-05-03T09:10:48;10.07;;;4.30;;
2338;SDS011;1180;51.438;6.978;2023-05-03T09:13:14;7.00;;;4.07;;
2338;SDS011;1180;51.438;6.978;2023-05-03T09:15:40;5.37;;;3.70;;
2338;SDS011;1180;51.438;6.978;2023-05-03T09:18:09;5.73;;;3.63;;
2338;SDS011;1180;51.438;6.978;2023-05-03T09:20:40;4.37;;;3.93;;
2338;SDS011;1180;51.438;6.978;2023-05-03T09:23:07;9.80;;;4.33;;
2338;SDS011;1180;51.438;6.978;2023-05-03T09:25:40;4.37;;;3.80;;
2338;SDS011;1180;51.438;6.978;2023-05-03T09:28:05;3.80;;;3.50;;
2338;SDS011;1180;51.438;6.978;2023-05-03T09:30:31;5.10;;;3.80;;
2338;SDS011;1180;51.438;6.978;2023-05-03T09:32:56;5.20;;;3.50;;
2338;SDS011;1180;51.438;6.978;2023-05-03T09:35:21;7.07;;;3.70;;
2338;SDS011;1180;51.438;6.978;2023-05-03T09:37:47;6.70;;;4.30;;
2338;SDS011;1180;51.438;6.978;2023-05-03T09:40:12;6.20;;;4.83;;
2338;SDS011;1180;51.438;6.978;2023-05-03T09:42:54;4.73;;;4.13;;
2338;SDS011;1180;51.438;6.978;2023-05-03T09:45:34;6.13;;;3.67;;
2338;SDS011;1180;51.438;6.978;2023-05-03T09:48:01;8.47;;;4.40;;
2338;SDS011;1180;51.438;6.978;2023-05-03T09:50:28;5.30;;;4.80;;
2338;SDS011;1180;51.438;6.978;2023-05-03T09:53:02;6.53;;;4.40;;
2338;SDS011;1180;51.438;6.978;2023-05-03T09:55:33;5.27;;;3.87;;
2338;SDS011;1180;51.438;6.978;2023-05-03T09:58:00;6.37;;;4.73;;
2338;SDS011;1180;51.438;6.978;2023-05-03T10:00:30;7.93;;;3.73;;
2338;SDS011;1180;51.438;6.978;2023-05-03T10:02:58;4.90;;;3.77;;
2338;SDS011;1180;51.438;6.978;2023-05-03T10:05:26;12.63;;;4.27;;
2338;SDS011;1180;51.438;6.978;2023-05-03T10:07:56;5.80;;;3.77;;
2338;SDS011;1180;51.438;6.978;2023-05-03T10:10:25;6.57;;;4.20;;
2338;SDS011;1180;51.438;6.978;2023-05-03T10:12:54;5.37;;;3.90;;
2338;SDS011;1180;51.438;6.978;2023-05-03T10:15:19;6.53;;;3.70;;
2338;SDS011;1180;51.438;6.978;2023-05-03T10:17:47;4.53;;;4.13;;
2338;SDS011;1180;51.438;6.978;2023-05-03T10:25:30;5.50;;;3.57;;
2338;SDS011;1180;51.438;6.978;2023-05-03T10:28:02;3.30;;;3.00;;
2338;SDS011;1180;51.438;6.978;2023-05-03T10:30:36;4.80;;;3.67;;
2338;SDS011;1180;51.438;6.978;2023-05-03T10:33:48;5.43;;;3.97;;
2338;SDS011;1180;51.438;6.978;2023-05-03T10:35:53;5.10;;;3.60;;
2338;SDS011;1180;51.438;6.978;2023-05-03T10:38:20;6.00;;;4.30;;
2338;SDS011;1180;51.438;6.978;2023-05-03T10:40:50;7.93;;;3.83;;
2338;SDS011;1180;51.438;6.978;2023-05-03T10:45:58;4.33;;;3.93;;
2338;SDS011;1180;51.438;6.978;2023-05-03T10:48:25;4.17;;;3.73;;
2338;SDS011;1180;51.438;6.978;2023-05-03T10:50:52;5.67;;;3.37;;
2338;SDS011;1180;51.438;6.978;2023-05-03T10:56:06;3.47;;;3.10;;
2338;SDS011;1180;51.438;6.978;2023-05-03T10:58:43;5.40;;;3.00;;
2338;SDS011;1180;51.438;6.978;2023-05-03T11:01:11;3.80;;;3.40;;
2338;SDS011;1180;51.438;6.978;2023-05-03T11:06:25;3.93;;;2.90;;
2338;SDS011;1180;51.438;6.978;2023-05-03T11:08:57;5.70;;;3.70;;
2338;SDS011;1180;51.438;6.978;2023-05-03T11:11:23;4.13;;;3.50;;
2338;SDS011;1180;51.438;6.978;2023-05-03T11:13:49;3.90;;;3.30;;
2338;SDS011;1180;51.438;6.978;2023-05-03T11:16:15;4.03;;;3.37;;
2338;SDS011;1180;51.438;6.978;2023-05-03T11:18:41;6.07;;;3.53;;
2338;SDS011;1180;51.438;6.978;2023-05-03T11:21:09;7.80;;;3.40;;
2338;SDS011;1180;51.438;6.978;2023-05-03T11:23:36;3.70;;;3.37;;
2338;SDS011;1180;51.438;6.978;2023-05-03T11:26:07;6.20;;;4.00;;
2338;SDS011;1180;51.438;6.978;2023-05-03T11:28:34;5.00;;;3.03;;
2338;SDS011;1180;51.438;6.978;2023-05-03T11:31:03;5.27;;;3.00;;
2338;SDS011;1180;51.438;6.978;2023-05-03T11:33:31;4.70;;;3.70;;
2338;SDS011;1180;51.438;6.978;2023-05-03T11:36:00;5.67;;;3.73;;
2338;SDS011;1180;51.438;6.978;2023-05-03T11:38:29;4.77;;;3.80;;
2338;SDS011;1180;51.438;6.978;2023-05-03T11:40:56;6.00;;;3.47;;
2338;SDS011;1180;51.438;6.978;2023-05-03T11:43:22;4.23;;;3.83;;
2338;SDS011;1180;51.438;6.978;2023-05-03T11:45:49;5.73;;;4.40;;
2338;SDS011;1180;51.438;6.978;2023-05-03T11:48:18;5.37;;;3.67;;
2338;SDS011;1180;51.438;6.978;2023-05-03T11:50:45;3.40;;;3.10;;
2338;SDS011;1180;51.438;6.978;2023-05-03T11:53:24;3.83;;;2.83;;
2338;SDS011;1180;51.438;6.978;2023-05-03T11:55:51;3.63;;;3.33;;
2338;SDS011;1180;51.438;6.978;2023-05-03T11:58:20;3.53;;;3.07;;
2338;SDS011;1180;51.438;6.978;2023-05-03T12:00:51;4.27;;;3.87;;
2338;SDS011;1180;51.438;6.978;2023-05-03T12:03:28;8.07;;;4.20;;
2338;SDS011;1180;51.438;6.978;2023-05-03T12:05:56;4.37;;;3.57;;
2338;SDS011;1180;51.438;6.978;2023-05-03T12:08:29;4.47;;;3.53;;
2338;SDS011;1180;51.438;6.978;2023-05-03T12:10:57;5.77;;;3.60;;
2338;SDS011;1180;51.438;6.978;2023-05-03T12:13:31;3.83;;;3.50;;
2338;SDS011;1180;51.438;6.978;2023-05-03T12:16:00;4.57;;;3.60;;
2338;SDS011;1180;51.438;6.978;2023-05-03T12:18:43;7.10;;;3.30;;
2338;SDS011;1180;51.438;6.978;2023-05-03T12:21:11;5.13;;;3.77;;
2338;SDS011;1180;51.438;6.978;2023-05-03T12:23:39;4.73;;;3.87;;
2338;SDS011;1180;51.438;6.978;2023-05-03T12:26:05;6.37;;;3.67;;
2338;SDS011;1180;51.438;6.978;2023-05-03T12:28:31;8.70;;;4.60;;
2338;SDS011;1180;51.438;6.978;2023-05-03T12:30:58;5.63;;;3.40;;
2338;SDS011;1180;51.438;6.978;2023-05-03T12:33:24;4.37;;;3.40;;
2338;SDS011;1180;51.438;6.978;2023-05-03T12:35:50;5.33;;;4.20;;
2338;SDS011;1180;51.438;6.978;2023-05-03T12:38:16;4.20;;;3.50;;
2338;SDS011;1180;51.438;6.978;2023-05-03T12:40:42;5.90;;;3.90;;
2338;SDS011;1180;51.438;6.978;2023-05-03T12:43:09;5.97;;;5.07;;
2338;SDS011;1180;51.438;6.978;2023-05-03T12:45:35;8.30;;;4.57;;
2338;SDS011;1180;51.438;6.978;2023-05-03T12:48:01;4.67;;;3.60;;
2338;SDS011;1180;51.438;6.978;2023-05-03T12:50:27;3.57;;;3.27;;
2338;SDS011;1180;51.438;6.978;2023-05-03T12:52:52;8.07;;;3.20;;
2338;SDS011;1180;51.438;6.978;2023-05-03T12:55:18;5.63;;;3.47;;
2338;SDS011;1180;51.438;6.978;2023-05-03T12:57:44;3.93;;;3.40;;
2338;SDS011;1180;51.438;6.978;2023-05-03T13:00:10;4.03;;;3.40;;
2338;SDS011;1180;51.438;6.978;2023-05-03T13:02:37;7.47;;;4.20;;
2338;SDS011;1180;51.438;6.978;2023-05-03T13:05:03;3.50;;;3.20;;
2338;SDS011;1180;51.438;6.978;2023-05-03T13:07:30;8.90;;;3.93;;
2338;SDS011;1180;51.438;6.978;2023-05-03T13:09:56;8.10;;;3.77;;
2338;SDS011;1180;51.438;6.978;2023-05-03T13:12:24;3.43;;;3.10;;
2338;SDS011;1180;51.438;6.978;2023-05-03T13:14:51;5.50;;;3.20;;
2338;SDS011;1180;51.438;6.978;2023-05-03T13:17:19;2.73;;;2.27;;
2338;SDS011;1180;51.438;6.978;2023-05-03T13:19:46;8.80;;;3.87;;
2338;SDS011;1180;51.438;6.978;2023-05-03T13:22:13;2.50;;;2.30;;
2338;SDS011;1180;51.438;6.978;2023-05-03T13:24:40;3.20;;;2.90;;
2338;SDS011;1180;51.438;6.978;2023-05-03T13:27:06;4.10;;;3.13;;
2338;SDS011;1180;51.438;6.978;2023-05-03T13:29:32;7.10;;;3.10;;
2338;SDS011;1180;51.438;6.978;2023-05-03T13:31:58;5.30;;;2.80;;
2338;SDS011;1180;51.438;6.978;2023-05-03T13:34:24;2.97;;;2.77;;
2338;SDS011;1180;51.438;6.978;2023-05-03T13:36:50;5.00;;;3.93;;
2338;SDS011;1180;51.438;6.978;2023-05-03T13:39:15;4.10;;;2.80;;
2338;SDS011;1180;51.438;6.978;2023-05-03T13:41:43;3.93;;;2.63;;
2338;SDS011;1180;51.438;6.978;2023-05-03T13:44:08;4.03;;;3.30;;
2338;SDS011;1180;51.438;6.978;2023-05-03T13:46:35;3.53;;;2.70;;
2338;SDS011;1180;51.438;6.978;2023-05-03T13:49:02;3.60;;;3.30;;
2338;SDS011;1180;51.438;6.978;2023-05-03T13:51:29;3.67;;;3.37;;
2338;SDS011;1180;51.438;6.978;2023-05-03T13:53:57;3.93;;;3.00;;
2338;SDS011;1180;51.438;6.978;2023-05-03T13:56:24;3.43;;;3.13;;
2338;SDS011;1180;51.438;6.978;2023-05-03T13:58:50;4.37;;;2.67;;
2338;SDS011;1180;51.438;6.978;2023-05-03T14:01:15;6.27;;;3.90;;
2338;SDS011;1180;51.438;6.978;2023-05-03T14:03:42;5.07;;;3.57;;
2338;SDS011;1180;51.438;6.978;2023-05-03T14:06:09;5.60;;;2.60;;
2338;SDS011;1180;51.438;6.978;2023-05-03T14:08:35;3.50;;;3.20;;
2338;SDS011;1180;51.438;6.978;2023-05-03T14:11:01;6.13;;;2.90;;
2338;SDS011;1180;51.438;6.978;2023-05-03T14:13:27;6.40;;;3.90;;
2338;SDS011;1180;51.438;6.978;2023-05-03T14:15:53;3.47;;;2.73;;
2338;SDS011;1180;51.438;6.978;2023-05-03T14:18:19;5.40;;;3.20;;
2338;SDS011;1180;51.438;6.978;2023-05-03T14:20:45;3.90;;;3.60;;
2338;SDS011;1180;51.438;6.978;2023-05-03T14:23:14;4.50;;;3.43;;
2338;SDS011;1180;51.438;6.978;2023-05-03T14:25:43;4.50;;;3.47;;
2338;SDS011;1180;51.438;6.978;2023-05-03T14:28:09;4.37;;;2.97;;
2338;SDS011;1180;51.438;6.978;2023-05-03T14:30:35;3.63;;;2.80;;
2338;SDS011;1180;51.438;6.978;2023-05-03T14:33:01;5.33;;;3.30;;
2338;SDS011;1180;51.438;6.978;2023-05-03T14:35:26;7.90;;;3.70;;
2338;SDS011;1180;51.438;6.978;2023-05-03T14:37:52;6.10;;;3.47;;
2338;SDS011;1180;51.438;6.978;2023-05-03T14:40:18;2.97;;;2.67;;
2338;SDS011;1180;51.438;6.978;2023-05-03T14:42:45;5.50;;;3.00;;
2338;SDS011;1180;51.438;6.978;2023-05-03T14:45:10;3.43;;;3.03;;
2338;SDS011;1180;51.438;6.978;2023-05-03T14:47:39;4.30;;;3.80;;
2338;SDS011;1180;51.438;6.978;2023-05-03T14:50:06;4.87;;;4.27;;
2338;SDS011;1180;51.438;6.978;2023-05-03T14:52:32;4.13;;;3.83;;
2338;SDS011;1180;51.438;6.978;2023-05-03T14:54:58;3.30;;;2.60;;
2338;SDS011;1180;51.438;6.978;2023-05-03T14:57:23;4.13;;;3.47;;
2338;SDS011;1180;51.438;6.978;2023-05-03T14:59:49;6.50;;;3.67;;
2338;SDS011;1180;51.438;6.978;2023-05-03T15:02:15;4.70;;;4.30;;
2338;SDS011;1180;51.438;6.978;2023-05-03T15:04:41;5.80;;;4.47;;
2338;SDS011;1180;51.438;6.978;2023-05-03T15:07:07;4.13;;;3.73;;
2338;SDS011;1180;51.438;6.978;2023-05-03T15:09:33;4.10;;;3.60;;
2338;SDS011;1180;51.438;6.978;2023-05-03T15:11:59;6.07;;;3.83;;
2338;SDS011;1180;51.438;6.978;2023-05-03T15:14:26;3.57;;;3.30;;
2338;SDS011;1180;51.438;6.978;2023-05-03T15:16:52;3.80;;;3.40;;
2338;SDS011;1180;51.438;6.978;2023-05-03T15:19:18;5.30;;;4.10;;
2338;SDS011;1180;51.438;6.978;2023-05-03T15:21:46;5.40;;;3.80;;
2338;SDS011;1180;51.438;6.978;2023-05-03T15:24:14;7.80;;;4.13;;
2338;SDS011;1180;51.438;6.978;2023-05-03T15:26:40;4.20;;;3.80;;
2338;SDS011;1180;51.438;6.978;2023-05-03T15:29:05;4.27;;;3.80;;
2338;SDS011;1180;51.438;6.978;2023-05-03T15:31:31;4.10;;;3.73;;